createdAt,value
2022-12-08T00:00:04.998Z,99175.28
2022-12-08T00:00:17.504Z,99172.72
2022-12-08T00:00:30.001Z,99176.16
2022-12-08T00:00:42.359Z,99177.00
2022-12-08T00:00:54.261Z,99172.75
2022-12-08T00:01:11.327Z,99177.03
2022-12-08T00:01:25.878Z,99171.88
2022-12-08T00:01:37.918Z,99173.63
2022-12-08T00:01:50.022Z,99176.19
2022-12-08T00:02:02.237Z,99171.88
2022-12-08T00:02:16.028Z,99174.50
2022-12-08T00:02:28.175Z,99175.38
2022-12-08T00:02:42.412Z,99171.09
2022-12-08T00:02:55.425Z,99176.22
2022-12-08T00:03:07.672Z,99181.31
2022-12-08T00:03:19.951Z,99171.94
2022-12-08T00:03:32.548Z,99169.31
2022-12-08T00:03:45.471Z,99177.03
2022-12-08T00:03:59.332Z,99168.47
2022-12-08T00:04:11.451Z,99171.06
2022-12-08T00:04:23.361Z,99170.22
2022-12-08T00:04:55.258Z,99169.31
2022-12-08T00:05:25.915Z,99167.63
2022-12-08T00:05:56.289Z,99171.03
2022-12-08T00:06:50.276Z,99172.78
2022-12-08T00:07:20.622Z,99178.78
2022-12-08T00:07:52.327Z,99173.63
2022-12-08T00:08:23.205Z,99167.59
2022-12-08T00:08:54.275Z,99166.72
2022-12-08T00:09:24.235Z,99166.72
2022-12-08T00:09:39.765Z,99173.56
2022-12-08T00:09:52.705Z,99171.84
2022-12-08T00:10:25.121Z,99168.44
2022-12-08T00:10:48.861Z,99164.19
2022-12-08T00:11:02.136Z,99171.03
2022-12-08T00:11:15.693Z,99172.72
2022-12-08T00:11:27.700Z,99169.31
2022-12-08T00:11:40.978Z,99162.47
2022-12-08T00:11:54.978Z,99168.50
2022-12-08T00:12:10.067Z,99162.50
2022-12-08T00:12:22.124Z,99164.19
2022-12-08T00:12:34.105Z,99168.53
2022-12-08T00:12:46.026Z,99168.59
2022-12-08T00:12:58.211Z,99172.84
2022-12-08T00:13:10.232Z,99168.56
2022-12-08T00:13:22.172Z,99170.25
2022-12-08T00:13:34.059Z,99171.13
2022-12-08T00:13:47.065Z,99167.69
2022-12-08T00:13:59.029Z,99165.97
2022-12-08T00:14:10.933Z,99168.53
2022-12-08T00:14:26.550Z,99165.97
2022-12-08T00:14:41.507Z,99169.38
2022-12-08T00:14:54.553Z,99173.66
2022-12-08T00:15:07.683Z,99169.38
2022-12-08T00:15:20.074Z,99175.34
2022-12-08T00:15:31.979Z,99171.94
2022-12-08T00:15:43.914Z,99171.94
2022-12-08T00:16:03.146Z,99174.47
2022-12-08T00:16:15.080Z,99172.78
2022-12-08T00:16:27.141Z,99170.22
2022-12-08T00:16:39.434Z,99172.78
2022-12-08T00:16:53.037Z,99171.06
2022-12-08T00:17:06.728Z,99171.06
2022-12-08T00:17:18.765Z,99165.06
2022-12-08T00:17:30.707Z,99170.19
2022-12-08T00:17:42.706Z,99170.19
2022-12-08T00:17:55.849Z,99167.59
2022-12-08T00:18:07.975Z,99173.56
2022-12-08T00:18:20.078Z,99178.69
2022-12-08T00:18:31.987Z,99168.47
2022-12-08T00:18:43.929Z,99171.88
2022-12-08T00:18:56.235Z,99176.19
2022-12-08T00:19:08.205Z,99172.72
2022-12-08T00:19:20.789Z,99172.72
2022-12-08T00:19:32.772Z,99172.72
2022-12-08T00:19:45.531Z,99174.41
2022-12-08T00:19:57.428Z,99178.69
2022-12-08T00:20:09.900Z,99167.59
2022-12-08T00:20:21.926Z,99173.56
2022-12-08T00:20:33.852Z,99171.88
2022-12-08T00:20:46.512Z,99171.88
2022-12-08T00:20:59.478Z,99168.44
2022-12-08T00:21:11.374Z,99168.44
2022-12-08T00:21:24.120Z,99176.13
2022-12-08T00:21:36.471Z,99169.28
2022-12-08T00:21:48.419Z,99165.00
2022-12-08T00:22:01.085Z,99170.09
2022-12-08T00:22:14.688Z,99167.56
2022-12-08T00:22:26.990Z,99165.88
2022-12-08T00:22:39.018Z,99170.13
2022-12-08T00:22:50.936Z,99170.13
2022-12-08T00:23:04.201Z,99164.97
2022-12-08T00:23:17.014Z,99164.16
2022-12-08T00:23:29.531Z,99167.59
2022-12-08T00:23:41.465Z,99167.59
2022-12-08T00:23:55.928Z,99167.59
2022-12-08T00:24:08.795Z,99174.44
2022-12-08T00:24:22.480Z,99169.31
2022-12-08T00:24:39.417Z,99171.06
2022-12-08T00:24:52.176Z,99173.66
2022-12-08T00:25:04.770Z,99171.97
2022-12-08T00:25:16.964Z,99161.72
2022-12-08T00:25:28.865Z,99166.88
2022-12-08T00:25:40.805Z,99168.53
2022-12-08T00:25:52.847Z,99168.53
2022-12-08T00:26:06.165Z,99172.78
2022-12-08T00:26:18.799Z,99169.38
2022-12-08T00:26:30.816Z,99172.78
2022-12-08T00:26:42.837Z,99166.84
2022-12-08T00:26:55.083Z,99165.97
2022-12-08T00:27:09.129Z,99165.13
2022-12-08T00:27:21.679Z,99168.53
2022-12-08T00:27:33.747Z,99165.13
2022-12-08T00:27:47.226Z,99163.44
2022-12-08T00:27:59.521Z,99160.00
2022-12-08T00:28:11.446Z,99165.97
2022-12-08T00:28:23.327Z,99165.97
2022-12-08T00:28:35.499Z,99164.28
2022-12-08T00:28:48.338Z,99165.22
2022-12-08T00:29:00.274Z,99166.06
2022-12-08T00:29:17.148Z,99159.19
2022-12-08T00:29:30.036Z,99170.34
2022-12-08T00:29:43.776Z,99164.38
2022-12-08T00:29:55.731Z,99161.84
2022-12-08T00:30:08.365Z,99160.13
2022-12-08T00:30:20.248Z,99161.84
2022-12-08T00:30:32.376Z,99162.69
2022-12-08T00:30:44.868Z,99162.69
2022-12-08T00:30:56.858Z,99159.28
2022-12-08T00:31:11.369Z,99167.81
2022-12-08T00:31:23.344Z,99159.28
2022-12-08T00:31:35.480Z,99159.25
2022-12-08T00:31:48.009Z,99164.38
2022-12-08T00:32:00.268Z,99154.94
2022-12-08T00:32:13.293Z,99158.34
2022-12-08T00:32:25.454Z,99155.78
2022-12-08T00:32:37.825Z,99159.25
2022-12-08T00:32:49.737Z,99159.25
2022-12-08T00:33:01.627Z,99162.59
2022-12-08T00:33:13.606Z,99160.97
2022-12-08T00:33:27.774Z,99164.41
2022-12-08T00:33:40.476Z,99157.56
2022-12-08T00:33:52.360Z,99160.13
2022-12-08T00:34:04.881Z,99156.72
2022-12-08T00:34:17.593Z,99161.00
2022-12-08T00:34:31.027Z,99155.84
2022-12-08T00:34:42.920Z,99161.00
2022-12-08T00:34:54.843Z,99161.00
2022-12-08T00:35:07.188Z,99159.31
2022-12-08T00:35:19.233Z,99157.59
2022-12-08T00:35:31.133Z,99157.59
2022-12-08T00:35:43.738Z,99155.88
2022-12-08T00:35:55.629Z,99161.84
2022-12-08T00:36:13.479Z,99150.75
2022-12-08T00:36:25.647Z,99158.44
2022-12-08T00:36:37.604Z,99156.75
2022-12-08T00:36:49.548Z,99155.03
2022-12-08T00:37:01.572Z,99156.75
2022-12-08T00:37:13.466Z,99163.59
2022-12-08T00:37:25.595Z,99159.34
2022-12-08T00:37:37.518Z,99159.34
2022-12-08T00:37:50.378Z,99155.91
2022-12-08T00:38:02.718Z,99158.47
2022-12-08T00:38:14.662Z,99161.03
2022-12-08T00:38:26.553Z,99158.50
2022-12-08T00:38:39.609Z,99162.78
2022-12-08T00:38:51.863Z,99155.94
2022-12-08T00:39:03.783Z,99161.03
2022-12-08T00:39:17.434Z,99152.50
2022-12-08T00:39:29.399Z,99158.47
2022-12-08T00:39:41.323Z,99150.81
2022-12-08T00:39:54.135Z,99157.63
2022-12-08T00:40:06.852Z,99153.34
2022-12-08T00:40:18.874Z,99153.34
2022-12-08T00:40:30.817Z,99154.22
2022-12-08T00:40:46.262Z,99159.31
2022-12-08T00:40:59.349Z,99152.50
2022-12-08T00:41:39.823Z,99147.38
2022-12-08T00:42:10.444Z,99159.31
2022-12-08T00:42:22.331Z,99157.66
2022-12-08T00:42:34.237Z,99155.06
2022-12-08T00:42:46.195Z,99152.50
2022-12-08T00:42:58.089Z,99161.91
2022-12-08T00:43:09.959Z,99154.25
2022-12-08T00:43:23.165Z,99159.38
2022-12-08T00:43:35.619Z,99149.09
2022-12-08T00:43:47.555Z,99152.53
2022-12-08T00:44:00.473Z,99153.34
2022-12-08T00:44:15.282Z,99155.94
2022-12-08T00:44:27.729Z,99151.63
2022-12-08T00:44:45.419Z,99154.19
2022-12-08T00:44:57.415Z,99152.47
2022-12-08T00:45:10.145Z,99145.66
2022-12-08T00:45:22.422Z,99157.59
2022-12-08T00:45:34.391Z,99152.47
2022-12-08T00:45:46.391Z,99160.16
2022-12-08T00:45:58.522Z,99149.06
2022-12-08T00:46:11.961Z,99148.22
2022-12-08T00:46:23.991Z,99148.19
2022-12-08T00:46:36.328Z,99148.25
2022-12-08T00:46:48.919Z,99150.81
2022-12-08T00:47:00.999Z,99152.53
2022-12-08T00:47:13.856Z,99158.50
2022-12-08T00:47:25.736Z,99146.56
2022-12-08T00:47:38.449Z,99146.53
2022-12-08T00:47:50.321Z,99154.25
2022-12-08T00:48:02.230Z,99147.41
2022-12-08T00:48:14.547Z,99149.97
2022-12-08T00:48:26.494Z,99147.41
2022-12-08T00:48:39.154Z,99149.09
2022-12-08T00:48:51.024Z,99143.94
2022-12-08T00:49:04.450Z,99143.91
2022-12-08T00:49:18.655Z,99147.31
2022-12-08T00:49:30.588Z,99142.19
2022-12-08T00:49:42.521Z,99145.66
2022-12-08T00:49:54.449Z,99145.66
2022-12-08T00:50:07.271Z,99143.94
2022-12-08T00:50:20.848Z,99151.66
2022-12-08T00:50:33.380Z,99141.41
2022-12-08T00:50:46.043Z,99143.13
2022-12-08T00:50:57.998Z,99141.44
2022-12-08T00:51:09.992Z,99147.47
2022-12-08T00:51:23.150Z,99139.78
2022-12-08T00:51:35.103Z,99139.75
2022-12-08T00:51:47.466Z,99144.84
2022-12-08T00:51:59.412Z,99142.28
2022-12-08T00:52:12.570Z,99143.09
2022-12-08T00:52:24.779Z,99140.53
2022-12-08T00:52:37.281Z,99139.69
2022-12-08T00:52:49.385Z,99139.69
2022-12-08T00:53:01.307Z,99137.97
2022-12-08T00:53:13.193Z,99141.38
2022-12-08T00:53:25.150Z,99140.50
2022-12-08T00:53:37.148Z,99137.09
2022-12-08T00:53:49.452Z,99141.38
2022-12-08T00:54:01.484Z,99142.25
2022-12-08T00:54:14.596Z,99133.72
2022-12-08T00:54:26.675Z,99135.41
2022-12-08T00:54:38.646Z,99131.97
2022-12-08T00:54:50.522Z,99132.84
2022-12-08T00:55:02.494Z,99135.38
2022-12-08T00:55:15.754Z,99135.38
2022-12-08T00:55:27.650Z,99137.97
2022-12-08T00:55:39.546Z,99133.72
2022-12-08T00:55:51.458Z,99136.25
2022-12-08T00:56:03.475Z,99135.41
2022-12-08T00:56:15.919Z,99134.53
2022-12-08T00:56:27.941Z,99131.13
2022-12-08T00:56:39.922Z,99133.66
2022-12-08T00:56:52.154Z,99131.91
2022-12-08T00:57:04.273Z,99131.03
2022-12-08T00:57:16.174Z,99137.06
2022-12-08T00:57:28.165Z,99131.91
2022-12-08T00:57:40.704Z,99135.31
2022-12-08T00:57:52.617Z,99140.47
2022-12-08T00:58:04.573Z,99139.63
2022-12-08T00:58:16.474Z,99135.38
2022-12-08T00:58:28.418Z,99128.47
2022-12-08T00:58:41.596Z,99133.59
2022-12-08T00:58:53.586Z,99136.13
2022-12-08T00:59:07.400Z,99131.03
2022-12-08T00:59:19.330Z,99131.91
2022-12-08T00:59:31.242Z,99130.25
2022-12-08T00:59:43.174Z,99135.38
2022-12-08T00:59:55.114Z,99137.03
2022-12-08T01:00:08.617Z,99131.88
2022-12-08T01:00:20.830Z,99134.47
2022-12-08T01:00:32.796Z,99134.44
2022-12-08T01:00:45.451Z,99125.03
2022-12-08T01:00:57.428Z,99129.31
2022-12-08T01:01:13.605Z,99131.88
2022-12-08T01:01:25.996Z,99128.44
2022-12-08T01:01:38.083Z,99131.88
2022-12-08T01:01:51.326Z,99131.91
2022-12-08T01:02:03.277Z,99134.47
2022-12-08T01:02:16.366Z,99131.88
2022-12-08T01:02:28.353Z,99131.88
2022-12-08T01:02:40.686Z,99129.34
2022-12-08T01:02:52.720Z,99135.31
2022-12-08T01:03:04.726Z,99128.47
2022-12-08T01:03:16.738Z,99125.03
2022-12-08T01:03:28.984Z,99125.94
2022-12-08T01:03:42.281Z,99128.47
2022-12-08T01:03:54.305Z,99131.03
2022-12-08T01:04:08.312Z,99122.50
2022-12-08T01:04:20.769Z,99136.16
2022-12-08T01:04:34.441Z,99124.19
2022-12-08T01:04:46.365Z,99131.00
2022-12-08T01:04:58.290Z,99126.75
2022-12-08T01:05:10.179Z,99126.72
2022-12-08T01:05:22.205Z,99124.97
2022-12-08T01:05:34.097Z,99126.72
2022-12-08T01:05:47.744Z,99129.31
2022-12-08T01:06:03.595Z,99123.34
2022-12-08T01:06:15.602Z,99131.91
2022-12-08T01:06:27.670Z,99125.91
2022-12-08T01:06:39.852Z,99131.91
2022-12-08T01:06:52.442Z,99128.59
2022-12-08T01:07:04.856Z,99129.44
2022-12-08T01:07:16.852Z,99128.56
2022-12-08T01:07:29.042Z,99123.44
2022-12-08T01:07:41.334Z,99132.03
2022-12-08T01:07:53.299Z,99128.56
2022-12-08T01:08:06.992Z,99129.38
2022-12-08T01:08:19.027Z,99124.22
2022-12-08T01:08:31.187Z,99128.50
2022-12-08T01:08:43.374Z,99134.50
2022-12-08T01:08:55.768Z,99130.19
2022-12-08T01:09:08.434Z,99129.34
2022-12-08T01:09:20.879Z,99126.75
2022-12-08T01:09:32.969Z,99130.16
2022-12-08T01:09:44.845Z,99131.88
2022-12-08T01:09:58.796Z,99128.44
2022-12-08T01:10:10.715Z,99126.75
2022-12-08T01:10:23.725Z,99125.91
2022-12-08T01:10:37.106Z,99125.06
2022-12-08T01:10:49.035Z,99130.16
2022-12-08T01:11:09.855Z,99124.19
2022-12-08T01:11:22.474Z,99128.44
2022-12-08T01:11:35.371Z,99127.59
2022-12-08T01:11:48.562Z,99122.50
2022-12-08T01:12:00.876Z,99126.78
2022-12-08T01:12:12.740Z,99121.72
2022-12-08T01:12:25.728Z,99125.13
2022-12-08T01:12:37.820Z,99117.44
2022-12-08T01:12:51.115Z,99119.94
2022-12-08T01:13:03.810Z,99130.19
2022-12-08T01:13:15.758Z,99123.44
2022-12-08T01:13:29.433Z,99125.16
2022-12-08T01:13:42.154Z,99122.59
2022-12-08T01:13:54.126Z,99129.41
2022-12-08T01:14:07.337Z,99126.84
2022-12-08T01:14:19.256Z,99126.88
2022-12-08T01:14:32.686Z,99120.03
2022-12-08T01:14:44.718Z,99125.13
2022-12-08T01:15:00.732Z,99124.28
2022-12-08T01:15:14.992Z,99124.22
2022-12-08T01:15:26.872Z,99124.22
2022-12-08T01:15:38.791Z,99123.38
2022-12-08T01:15:50.657Z,99118.25
2022-12-08T01:16:03.028Z,99116.59
2022-12-08T01:16:27.836Z,99120.88
2022-12-08T01:16:41.428Z,99116.63
2022-12-08T01:16:53.709Z,99121.72
2022-12-08T01:17:05.831Z,99122.56
2022-12-08T01:17:18.840Z,99114.91
2022-12-08T01:17:30.883Z,99119.16
2022-12-08T01:17:43.445Z,99124.28
2022-12-08T01:17:55.382Z,99117.41
2022-12-08T01:18:07.787Z,99121.72
2022-12-08T01:18:19.709Z,99119.09
2022-12-08T01:18:32.367Z,99122.50
2022-12-08T01:18:44.258Z,99124.22
2022-12-08T01:18:57.972Z,99126.75
2022-12-08T01:19:14.730Z,99123.34
2022-12-08T01:19:27.004Z,99121.66
2022-12-08T01:19:38.928Z,99119.94
2022-12-08T01:19:51.463Z,99119.09
2022-12-08T01:20:05.137Z,99123.38
2022-12-08T01:20:17.736Z,99117.47
2022-12-08T01:20:29.647Z,99122.69
2022-12-08T01:20:41.571Z,99121.88
2022-12-08T01:20:53.707Z,99125.34
2022-12-08T01:21:07.176Z,99124.47
2022-12-08T01:21:20.151Z,99129.56
2022-12-08T01:21:32.646Z,99128.63
2022-12-08T01:21:45.700Z,99117.53
2022-12-08T01:21:58.329Z,99119.22
2022-12-08T01:22:10.228Z,99127.75
2022-12-08T01:22:22.497Z,99120.06
2022-12-08T01:22:36.034Z,99123.56
2022-12-08T01:22:47.960Z,99127.00
2022-12-08T01:23:00.128Z,99127.03
2022-12-08T01:23:12.212Z,99127.03
2022-12-08T01:23:24.796Z,99128.75
2022-12-08T01:23:36.724Z,99126.16
2022-12-08T01:23:48.657Z,99130.44
2022-12-08T01:24:01.500Z,99126.19
2022-12-08T01:24:21.698Z,99127.00
2022-12-08T01:24:34.066Z,99126.19
2022-12-08T01:24:46.899Z,99127.88
2022-12-08T01:24:58.810Z,99130.47
2022-12-08T01:25:10.686Z,99129.59
2022-12-08T01:25:22.659Z,99128.75
2022-12-08T01:25:35.374Z,99127.91
2022-12-08T01:25:48.513Z,99128.75
2022-12-08T01:26:10.940Z,99136.44
2022-12-08T01:26:22.844Z,99130.47
2022-12-08T01:26:34.773Z,99126.19
2022-12-08T01:26:48.182Z,99132.19
2022-12-08T01:27:00.117Z,99132.16
2022-12-08T01:27:12.350Z,99129.59
2022-12-08T01:27:24.249Z,99135.59
2022-12-08T01:27:36.130Z,99139.84
2022-12-08T01:27:49.215Z,99139.03
2022-12-08T01:28:01.104Z,99130.56
2022-12-08T01:28:13.065Z,99133.13
2022-12-08T01:28:25.035Z,99136.53
2022-12-08T01:28:37.720Z,99136.53
2022-12-08T01:28:50.093Z,99128.88
2022-12-08T01:29:02.020Z,99128.88
2022-12-08T01:29:14.221Z,99133.09
2022-12-08T01:29:27.029Z,99132.22
2022-12-08T01:29:39.181Z,99134.75
2022-12-08T01:29:51.571Z,99134.75
2022-12-08T01:30:04.187Z,99133.84
2022-12-08T01:30:17.206Z,99137.25
2022-12-08T01:30:29.208Z,99131.25
2022-12-08T01:30:41.590Z,99136.31
2022-12-08T01:30:53.795Z,99131.19
2022-12-08T01:31:11.732Z,99128.63
2022-12-08T01:31:25.002Z,99132.91
2022-12-08T01:31:37.495Z,99137.28
2022-12-08T01:31:49.402Z,99127.91
2022-12-08T01:32:02.067Z,99134.78
2022-12-08T01:32:14.330Z,99137.34
2022-12-08T01:32:26.200Z,99134.78
2022-12-08T01:32:38.131Z,99133.06
2022-12-08T01:32:50.299Z,99139.03
2022-12-08T01:33:02.231Z,99137.31
2022-12-08T01:33:14.130Z,99135.69
2022-12-08T01:33:27.801Z,99137.44
2022-12-08T01:33:39.990Z,99137.44
2022-12-08T01:33:52.008Z,99140.84
2022-12-08T01:34:04.266Z,99137.50
2022-12-08T01:34:16.479Z,99134.09
2022-12-08T01:34:28.949Z,99136.63
2022-12-08T01:34:40.893Z,99136.63
2022-12-08T01:34:52.918Z,99141.78
2022-12-08T01:35:05.198Z,99134.97
2022-12-08T01:35:17.276Z,99140.97
2022-12-08T01:35:29.223Z,99135.84
2022-12-08T01:35:41.096Z,99131.59
2022-12-08T01:35:54.465Z,99140.97
2022-12-08T01:36:07.068Z,99133.28
2022-12-08T01:36:19.388Z,99137.56
2022-12-08T01:36:32.913Z,99141.81
2022-12-08T01:36:45.112Z,99140.97
2022-12-08T01:36:57.423Z,99139.22
2022-12-08T01:37:09.592Z,99141.78
2022-12-08T01:37:21.521Z,99136.66
2022-12-08T01:37:33.443Z,99134.94
2022-12-08T01:37:45.475Z,99136.63
2022-12-08T01:37:57.419Z,99142.59
2022-12-08T01:38:09.323Z,99136.59
2022-12-08T01:38:23.325Z,99145.16
2022-12-08T01:38:35.329Z,99140.03
2022-12-08T01:38:47.472Z,99142.59
2022-12-08T01:39:02.323Z,99135.72
2022-12-08T01:39:17.118Z,99132.28
2022-12-08T01:39:29.865Z,99134.84
2022-12-08T01:39:42.009Z,99133.13
2022-12-08T01:39:53.922Z,99132.25
2022-12-08T01:40:07.150Z,99133.94
2022-12-08T01:40:19.320Z,99131.41
2022-12-08T01:40:31.878Z,99132.25
2022-12-08T01:40:43.803Z,99134.81
2022-12-08T01:40:55.826Z,99136.50
2022-12-08T01:41:07.949Z,99131.34
2022-12-08T01:41:22.096Z,99137.31
2022-12-08T01:41:37.452Z,99135.59
2022-12-08T01:41:50.019Z,99131.34
2022-12-08T01:42:01.908Z,99133.06
2022-12-08T01:42:22.016Z,99137.31
2022-12-08T01:42:34.962Z,99133.91
2022-12-08T01:42:46.885Z,99135.59
2022-12-08T01:42:58.771Z,99135.63
2022-12-08T01:43:20.674Z,99135.59
2022-12-08T01:43:56.372Z,99135.56
2022-12-08T01:44:08.292Z,99133.88
2022-12-08T01:44:20.364Z,99137.31
2022-12-08T01:44:32.227Z,99133.88
2022-12-08T01:44:44.108Z,99136.44
2022-12-08T01:45:02.691Z,99130.44
2022-12-08T01:45:24.596Z,99135.53
2022-12-08T01:45:36.839Z,99137.22
2022-12-08T01:45:48.867Z,99132.13
2022-12-08T01:46:01.615Z,99135.56
2022-12-08T01:46:13.617Z,99138.13
2022-12-08T01:46:26.439Z,99134.69
2022-12-08T01:46:42.772Z,99132.13
2022-12-08T01:46:55.373Z,99134.66
2022-12-08T01:47:07.389Z,99131.25
2022-12-08T01:47:19.420Z,99133.75
2022-12-08T01:47:40.116Z,99136.28
2022-12-08T01:47:57.115Z,99138.88
2022-12-08T01:48:26.733Z,99134.56
2022-12-08T01:48:38.769Z,99138.00
2022-12-08T01:48:54.521Z,99140.56
2022-12-08T01:49:12.712Z,99136.28
2022-12-08T01:49:32.885Z,99138.81
2022-12-08T01:49:44.849Z,99135.41
2022-12-08T01:49:56.906Z,99139.66
2022-12-08T01:50:12.031Z,99131.97
2022-12-08T01:50:24.503Z,99136.25
2022-12-08T01:50:38.359Z,99142.22
2022-12-08T01:50:51.773Z,99131.28
2022-12-08T01:51:05.259Z,99135.63
2022-12-08T01:51:17.669Z,99133.91
2022-12-08T01:51:34.486Z,99137.34
2022-12-08T01:52:07.631Z,99133.88
2022-12-08T01:52:39.105Z,99123.56
2022-12-08T01:53:01.367Z,99132.06
2022-12-08T01:53:22.556Z,99130.38
2022-12-08T01:53:34.625Z,99132.91
2022-12-08T01:53:47.656Z,99129.53
2022-12-08T01:54:00.297Z,99129.53
2022-12-08T01:54:13.394Z,99129.56
2022-12-08T01:54:29.235Z,99127.00
2022-12-08T01:54:53.444Z,99126.19
2022-12-08T01:55:48.196Z,99129.63
2022-12-08T01:56:09.469Z,99122.75
2022-12-08T01:56:30.893Z,99121.88
2022-12-08T01:56:58.657Z,99128.63
2022-12-08T01:57:16.937Z,99124.34
2022-12-08T01:57:40.316Z,99119.25
2022-12-08T01:58:08.255Z,99125.19
2022-12-08T01:58:26.562Z,99124.31
2022-12-08T01:58:45.627Z,99124.31
2022-12-08T01:58:58.322Z,99120.03
2022-12-08T01:59:11.643Z,99126.84
2022-12-08T01:59:25.009Z,99123.44
2022-12-08T01:59:41.369Z,99126.00
2022-12-08T02:00:02.033Z,99128.56
2022-12-08T02:00:17.362Z,99122.53
2022-12-08T02:00:29.466Z,99130.25
2022-12-08T02:00:42.307Z,99126.84
2022-12-08T02:00:54.551Z,99125.09
2022-12-08T02:01:07.523Z,99124.22
2022-12-08T02:01:21.276Z,99124.22
2022-12-08T02:01:33.615Z,99122.50
2022-12-08T02:01:45.699Z,99128.56
2022-12-08T02:01:58.006Z,99130.28
2022-12-08T02:02:11.294Z,99127.69
2022-12-08T02:02:27.306Z,99126.00
2022-12-08T02:03:13.777Z,99123.44
2022-12-08T02:03:36.543Z,99126.84
2022-12-08T02:03:59.862Z,99128.56
2022-12-08T02:04:11.875Z,99126.00
2022-12-08T02:04:24.202Z,99127.72
2022-12-08T02:04:36.125Z,99127.72
2022-12-08T02:04:48.053Z,99125.16
2022-12-08T02:05:00.311Z,99128.56
2022-12-08T02:05:13.215Z,99128.56
2022-12-08T02:05:35.335Z,99126.84
2022-12-08T02:05:47.857Z,99128.50
2022-12-08T02:05:59.732Z,99124.22
2022-12-08T02:06:12.268Z,99123.38
2022-12-08T02:06:25.851Z,99125.09
2022-12-08T02:06:41.823Z,99128.53
2022-12-08T02:06:54.884Z,99126.78
2022-12-08T02:07:08.532Z,99124.19
2022-12-08T02:07:22.028Z,99127.63
2022-12-08T02:07:36.020Z,99123.34
2022-12-08T02:07:49.182Z,99117.34
2022-12-08T02:08:06.618Z,99123.31
2022-12-08T02:08:19.839Z,99119.06
2022-12-08T02:08:32.804Z,99124.19
2022-12-08T02:08:45.901Z,99123.34
2022-12-08T02:09:00.239Z,99121.66
2022-12-08T02:09:12.854Z,99128.47
2022-12-08T02:09:24.797Z,99119.94
2022-12-08T02:09:38.213Z,99128.47
2022-12-08T02:09:50.900Z,99121.63
2022-12-08T02:10:05.202Z,99116.50
2022-12-08T02:10:20.845Z,99116.50
2022-12-08T02:10:35.205Z,99119.06
2022-12-08T02:10:48.979Z,99119.06
2022-12-08T02:11:00.921Z,99116.53
2022-12-08T02:11:13.723Z,99120.81
2022-12-08T02:11:27.404Z,99117.38
2022-12-08T02:11:39.332Z,99111.41
2022-12-08T02:11:51.341Z,99118.31
2022-12-08T02:12:04.036Z,99118.31
2022-12-08T02:12:16.135Z,99109.72
2022-12-08T02:12:28.709Z,99114.91
2022-12-08T02:12:40.685Z,99109.78
2022-12-08T02:12:55.999Z,99119.19
2022-12-08T02:13:13.451Z,99115.81
2022-12-08T02:13:25.840Z,99112.38
2022-12-08T02:13:38.961Z,99114.06
2022-12-08T02:13:53.317Z,99114.91
2022-12-08T02:14:08.741Z,99109.81
2022-12-08T02:14:20.796Z,99108.09
2022-12-08T02:14:34.375Z,99108.97
2022-12-08T02:14:46.326Z,99113.22
2022-12-08T02:15:04.817Z,99109.78
2022-12-08T02:15:19.926Z,99113.22
2022-12-08T02:15:40.980Z,99113.19
2022-12-08T02:16:16.993Z,99120.88
2022-12-08T02:17:08.006Z,99109.72
2022-12-08T02:17:28.970Z,99113.13
2022-12-08T02:17:58.143Z,99104.59
2022-12-08T02:18:25.714Z,99110.63
2022-12-08T02:19:31.561Z,99102.94
2022-12-08T02:20:04.798Z,99099.53
2022-12-08T02:20:31.711Z,99102.91
2022-12-08T02:20:58.825Z,99107.22
2022-12-08T02:21:41.712Z,99102.13
2022-12-08T02:22:13.407Z,99102.97
2022-12-08T02:22:42.754Z,99098.69
2022-12-08T02:23:04.973Z,99101.22
2022-12-08T02:23:41.563Z,99097.78
2022-12-08T02:24:10.569Z,99097.75
2022-12-08T02:24:31.767Z,99097.75
2022-12-08T02:25:07.859Z,99100.28
2022-12-08T02:25:29.196Z,99101.13
2022-12-08T02:26:02.408Z,99093.41
2022-12-08T02:26:51.294Z,99101.13
2022-12-08T02:27:08.947Z,99096.84
2022-12-08T02:27:49.109Z,99098.66
2022-12-08T02:28:08.382Z,99087.50
2022-12-08T02:28:55.340Z,99093.50
2022-12-08T02:29:32.584Z,99093.47
2022-12-08T02:30:06.454Z,99094.34
2022-12-08T02:30:23.471Z,99094.34
2022-12-08T02:30:50.195Z,99094.31
2022-12-08T02:31:20.771Z,99096.06
2022-12-08T02:31:58.676Z,99094.34
2022-12-08T02:32:19.568Z,99097.75
2022-12-08T02:32:43.326Z,99090.91
2022-12-08T02:32:57.920Z,99088.34
2022-12-08T02:33:40.618Z,99087.44
2022-12-08T02:34:23.228Z,99085.81
2022-12-08T02:34:44.269Z,99083.22
2022-12-08T02:35:21.439Z,99084.09
2022-12-08T02:35:49.726Z,99085.78
2022-12-08T02:36:01.574Z,99080.66
2022-12-08T02:36:20.005Z,99082.38
2022-12-08T02:36:56.291Z,99084.91
2022-12-08T02:37:15.759Z,99091.75
2022-12-08T02:37:41.210Z,99086.59
2022-12-08T02:38:14.897Z,99080.59
2022-12-08T02:38:26.739Z,99089.19
2022-12-08T02:38:45.722Z,99085.72
2022-12-08T02:39:24.739Z,99081.44
2022-12-08T02:39:53.853Z,99081.53
2022-12-08T02:40:28.287Z,99084.09
2022-12-08T02:41:03.887Z,99081.47
2022-12-08T02:41:30.680Z,99075.47
2022-12-08T02:41:56.602Z,99080.59
2022-12-08T02:42:19.266Z,99083.13
2022-12-08T02:42:42.275Z,99080.66
2022-12-08T02:43:01.322Z,99084.88
2022-12-08T02:43:22.549Z,99076.31
2022-12-08T02:44:00.702Z,99078.06
2022-12-08T02:44:22.786Z,99077.22
2022-12-08T02:44:48.296Z,99072.00
2022-12-08T02:45:03.408Z,99075.44
2022-12-08T02:45:36.692Z,99082.19
2022-12-08T02:45:59.824Z,99076.22
2022-12-08T02:46:19.280Z,99077.88
2022-12-08T02:46:38.201Z,99077.94
2022-12-08T02:47:01.136Z,99080.50
2022-12-08T02:47:17.681Z,99076.31
2022-12-08T02:47:32.034Z,99078.03
2022-12-08T02:47:44.769Z,99076.31
2022-12-08T02:47:58.929Z,99072.06
2022-12-08T02:48:10.989Z,99079.81
2022-12-08T02:48:22.868Z,99079.75
2022-12-08T02:48:35.058Z,99077.16
2022-12-08T02:48:47.795Z,99078.03
2022-12-08T02:49:00.146Z,99070.28
2022-12-08T02:49:15.037Z,99076.25
2022-12-08T02:49:33.727Z,99067.72
2022-12-08T02:49:47.054Z,99072.00
2022-12-08T02:49:59.128Z,99076.25
2022-12-08T02:50:12.094Z,99072.84
2022-12-08T02:50:24.084Z,99065.16
2022-12-08T02:50:36.392Z,99070.34
2022-12-08T02:50:49.475Z,99070.34
2022-12-08T02:51:01.438Z,99075.47
2022-12-08T02:51:13.595Z,99073.75
2022-12-08T02:51:26.150Z,99060.13
2022-12-08T02:51:38.032Z,99066.09
2022-12-08T02:51:49.895Z,99066.91
2022-12-08T02:52:27.823Z,99060.00
2022-12-08T02:52:42.784Z,99064.31
2022-12-08T02:52:56.464Z,99063.47
2022-12-08T02:53:20.224Z,99056.63
2022-12-08T02:53:35.112Z,99066.00
2022-12-08T02:53:47.898Z,99060.03
2022-12-08T02:54:00.883Z,99062.66
2022-12-08T02:54:14.339Z,99066.88
2022-12-08T02:54:26.540Z,99060.03
2022-12-08T02:54:46.692Z,99064.31
2022-12-08T02:55:26.522Z,99059.34
2022-12-08T02:55:51.293Z,99065.31
2022-12-08T02:56:17.501Z,99057.53
2022-12-08T02:56:35.156Z,99052.53
2022-12-08T02:57:06.149Z,99055.13
2022-12-08T02:57:45.507Z,99054.28
2022-12-08T02:58:25.094Z,99050.78
2022-12-08T02:58:49.438Z,99051.56
2022-12-08T02:59:22.218Z,99048.16
2022-12-08T02:59:49.096Z,99042.97
2022-12-08T03:00:09.035Z,99047.22
2022-12-08T03:00:23.539Z,99051.44
2022-12-08T03:01:01.583Z,99045.44
2022-12-08T03:01:33.559Z,99042.81
2022-12-08T03:01:51.052Z,99044.53
2022-12-08T03:02:12.074Z,99041.97
2022-12-08T03:02:39.773Z,99041.06
2022-12-08T03:03:20.276Z,99040.25
2022-12-08T03:03:46.183Z,99046.16